Time;durP1;ratioP1;P1;durP2;ratioP2;P2;SDS_P1;SDS_P2;PMS_P1;PMS_P2;Temp;Humidity;BMP_temperature;BMP_pressure;BME280_temperature;BME280_humidity;BME280_pressure;Samples;Min_cycle;Max_cycle;Signal;HPM_P1;HPM_P2
2022/05/05 00:08:01;;;;;;;13.6;19.3;;;;;;;-133;85.7;65250;;;;
2022/05/05 00:19:01;;;;;;;13.6;19.3;;;;;;;-133;85.3;65250;;;;
2022/05/05 00:29:00;;;;;;;13.6;19.3;;;;;;;-133;86.1;65250;;;;
2022/05/05 00:39:01;;;;;;;14.5;17.7;;;;;;;-133;88.8;65250;;;;
2022/05/05 00:50:01;;;;;;;14.5;17.7;;;;;;;-133;88.8;65250;;;;
2022/05/05 01:54:01;;;;;;;16.4;19.6;;;;;;;-133;93.7;65250;;;;
2022/05/05 02:04:01;;;;;;;18.1;21.7;;;;;;;-133;94.8;65250;;;;
2022/05/05 02:15:01;;;;;;;18.1;21.7;;;;;;;-133;93.8;65260;;;;
2022/05/05 02:26:01;;;;;;;18.1;21.7;;;;;;;-133;93.8;65250;;;;
2022/05/05 02:48:01;;;;;;;16.9;19.3;;;;;;;-133;94.8;65250;;;;
2022/05/05 02:59:01;;;;;;;16.9;19.3;;;;;;;-133;96.1;65250;;;;
2022/05/05 03:10:01;;;;;;;19.7;24.9;;;;;;;-133;94.9;65260;;;;
2022/05/05 03:21:01;;;;;;;19.7;24.9;;;;;;;-133;94.3;65250;;;;
2022/05/05 03:32:01;;;;;;;17.2;21;;;;;;;-133;93.8;65250;;;;
2022/05/05 03:42:01;;;;;;;17.2;21;;;;;;;-133;94;65250;;;;
2022/05/05 03:53:01;;;;;;;17.2;21;;;;;;;-133;93.7;65250;;;;
2022/05/05 04:04:01;;;;;;;19.3;24.5;;;;;;;-133;94.3;65250;;;;
2022/05/05 04:14:01;;;;;;;19.3;24.5;;;;;;;-133;93.5;65250;;;;
2022/05/05 04:24:01;;;;;;;19.3;24.5;;;;;;;-133;92.3;65250;;;;
2022/05/05 04:35:01;;;;;;;18.6;23.4;;;;;;;-133;88.6;65240;;;;
2022/05/05 04:45:01;;;;;;;18.6;23.4;;;;;;;-133;87.5;65240;;;;
2022/05/05 04:56:02;;;;;;;18.6;23.4;;;;;;;-133;84.9;65240;;;;
2022/05/05 05:07:01;;;;;;;17;25;;;;;;;-133;83.3;65250;;;;
2022/05/05 05:18:01;;;;;;;17;25;;;;;;;-133;82.1;65240;;;;
2022/05/05 05:28:01;;;;;;;17;25;;;;;;;-133;79.9;65230;;;;
2022/05/05 05:39:01;;;;;;;13.5;18.7;;;;;;;-133;77.9;65240;;;;
2022/05/05 05:49:01;;;;;;;13.5;18.7;;;;;;;-133;78;65230;;;;
2022/05/05 06:00:01;;;;;;;13.5;18.7;;;;;;;-133;77.8;65230;;;;
2022/05/05 06:11:01;;;;;;;12.4;15.8;;;;;;;-133;77.3;65230;;;;
2022/05/05 06:22:01;;;;;;;12.4;15.8;;;;;;;-133;77.3;65230;;;;
2022/05/05 06:33:01;;;;;;;12.9;17.2;;;;;;;-133;75.6;65230;;;;
2022/05/05 06:44:01;;;;;;;12.9;17.2;;;;;;;-133;74.1;65230;;;;
2022/05/05 06:55:01;;;;;;;12.9;17.2;;;;;;;-133;72;65220;;;;
2022/05/05 07:06:01;;;;;;;12.3;17.1;;;;;;;-133;72.1;65220;;;;
2022/05/05 07:16:01;;;;;;;12.3;17.1;;;;;;;-133;70.3;65220;;;;
2022/05/05 07:26:01;;;;;;;12.3;17.1;;;;;;;-133;70.3;65220;;;;
2022/05/05 07:36:02;;;;;;;10.3;13.6;;;;;;;-133;66.5;65220;;;;
2022/05/05 07:47:01;;;;;;;10.3;13.6;;;;;;;-133;64;65220;;;;
2022/05/05 07:57:01;;;;;;;10.3;13.6;;;;;;;-133;62.8;65220;;;;
2022/05/05 08:08:01;;;;;;;6.3;10;;;;;;;-133;61.4;65220;;;;
2022/05/05 08:18:01;;;;;;;6.3;10;;;;;;;-133;60;65220;;;;
2022/05/05 08:29:01;;;;;;;6.3;10;;;;;;;-133;58.9;65210;;;;
2022/05/05 08:40:02;;;;;;;5.2;8.6;;;;;;;-133;56.2;65220;;;;
2022/05/05 08:50:01;;;;;;;5.2;8.6;;;;;;;-133;55.4;65220;;;;
2022/05/05 09:00:01;;;;;;;5.2;8.6;;;;;;;-133;55.8;65220;;;;
2022/05/05 09:11:01;;;;;;;5.6;9.2;;;;;;;-133;52.9;65220;;;;
2022/05/05 09:21:01;;;;;;;5.6;9.2;;;;;;;-133;53.6;65210;;;;
2022/05/05 09:32:01;;;;;;;5.2;9.3;;;;;;;-133;50.5;65220;;;;
2022/05/05 09:42:01;;;;;;;5.2;9.3;;;;;;;-133;48.5;65220;;;;
2022/05/05 10:02:04;;;;;;;3.7;7.7;;;;;;;-133;49.8;65220;;;;
2022/05/05 10:12:01;;;;;;;3.7;7.7;;;;;;;-133;47.7;65210;;;;
2022/05/05 10:23:01;;;;;;;3.7;7.7;;;;;;;-133;45.4;65210;;;;
2022/05/05 10:33:01;;;;;;;4.3;6.6;;;;;;;-133;43.7;65220;;;;
2022/05/05 10:43:01;;;;;;;4.3;6.6;;;;;;;-133;44.3;65220;;;;
2022/05/05 10:53:01;;;;;;;4.3;6.6;;;;;;;-133;43.6;65210;;;;
2022/05/05 11:04:02;;;;;;;3.9;6.7;;;;;;;-133;43.3;65220;;;;
2022/05/05 11:26:01;;;;;;;3.9;6.7;;;;;;;-133;43.5;65220;;;;
2022/05/05 11:36:02;;;;;;;3.9;9.3;;;;;;;-133;41.2;65220;;;;
2022/05/05 11:47:01;;;;;;;3.9;9.3;;;;;;;-133;39.8;65220;;;;
2022/05/05 11:58:01;;;;;;;3.9;9.3;;;;;;;-133;40.3;65220;;;;
2022/05/05 12:08:01;;;;;;;3.4;5.7;;;;;;;-133;41;65220;;;;
2022/05/05 12:18:01;;;;;;;3.4;5.7;;;;;;;-133;40.9;65220;;;;
2022/05/05 12:29:01;;;;;;;3.4;5.7;;;;;;;-133;42.8;65220;;;;
2022/05/05 12:39:01;;;;;;;3;6.7;;;;;;;-133;47.4;65220;;;;
2022/05/05 12:49:01;;;;;;;3;6.7;;;;;;;-133;49;65220;;;;
2022/05/05 13:00:04;;;;;;;3;6.7;;;;;;;-133;48.6;65220;;;;
2022/05/05 13:10:01;;;;;;;3.1;6.3;;;;;;;-133;52;65220;;;;
2022/05/05 13:21:01;;;;;;;3.1;6.3;;;;;;;-133;51.5;65230;;;;
2022/05/05 13:31:01;;;;;;;3.1;6.2;;;;;;;-133;52.1;65220;;;;
2022/05/05 13:42:01;;;;;;;3.1;6.2;;;;;;;-133;49.9;65220;;;;
2022/05/05 13:52:01;;;;;;;3.1;6.2;;;;;;;-133;48.9;65220;;;;
2022/05/05 14:03:01;;;;;;;3.2;9.3;;;;;;;-133;51.3;65220;;;;
2022/05/05 14:13:02;;;;;;;3.2;9.3;;;;;;;-133;47.5;65220;;;;
2022/05/05 14:23:01;;;;;;;3.2;9.3;;;;;;;-133;48.8;65230;;;;
2022/05/05 14:33:01;;;;;;;2.6;5.4;;;;;;;-133;53.3;65220;;;;
2022/05/05 14:44:01;;;;;;;2.6;5.4;;;;;;;-133;49.4;65220;;;;
2022/05/05 14:54:01;;;;;;;2.6;5.4;;;;;;;-133;48.9;65230;;;;
2022/05/05 15:05:01;;;;;;;2.4;4.6;;;;;;;-133;52.8;65230;;;;
2022/05/05 15:15:01;;;;;;;2.4;4.6;;;;;;;-133;52.8;65230;;;;
2022/05/05 15:26:01;;;;;;;2.4;4.6;;;;;;;-133;53.1;65230;;;;
2022/05/05 15:37:01;;;;;;;2.7;5.3;;;;;;;-133;52.8;65230;;;;
2022/05/05 15:47:01;;;;;;;2.7;5.3;;;;;;;-133;52;65230;;;;
2022/05/05 15:57:01;;;;;;;2.7;5.3;;;;;;;-133;52.5;65230;;;;
2022/05/05 16:08:01;;;;;;;2.6;4.7;;;;;;;-133;51.4;65230;;;;
2022/05/05 16:19:01;;;;;;;2.6;4.7;;;;;;;-133;51.1;65230;;;;
2022/05/05 16:40:01;;;;;;;2.5;5.5;;;;;;;-133;53.8;65230;;;;
2022/05/05 16:50:01;;;;;;;2.5;5.5;;;;;;;-133;55.4;65230;;;;
2022/05/05 17:01:01;;;;;;;2.4;5.1;;;;;;;-133;57.5;65230;;;;
2022/05/05 17:11:01;;;;;;;2.4;5.1;;;;;;;-133;58.6;65230;;;;
2022/05/05 17:21:01;;;;;;;2.4;5.1;;;;;;;-133;58.7;65230;;;;
2022/05/05 17:32:01;;;;;;;3.1;6;;;;;;;-133;61;65230;;;;
2022/05/05 17:43:01;;;;;;;3.1;6;;;;;;;-133;62.2;65230;;;;
2022/05/05 17:53:01;;;;;;;3.1;6;;;;;;;-133;65.2;65230;;;;
2022/05/05 18:03:01;;;;;;;3.7;7.3;;;;;;;-133;67.6;65240;;;;
2022/05/05 18:14:01;;;;;;;3.7;7.3;;;;;;;-133;69;65230;;;;
2022/05/05 18:24:01;;;;;;;3.7;7.3;;;;;;;-133;71.2;65230;;;;
2022/05/05 18:35:02;;;;;;;3;6.1;;;;;;;-133;78.1;65230;;;;
2022/05/05 18:45:01;;;;;;;3;6.1;;;;;;;-133;82.9;65230;;;;
2022/05/05 18:55:01;;;;;;;3;6.1;;;;;;;-133;85.8;65230;;;;
2022/05/05 19:06:01;;;;;;;3.8;7.7;;;;;;;-133;87.1;65230;;;;
2022/05/05 19:17:01;;;;;;;3.8;7.7;;;;;;;-133;91.2;65230;;;;
2022/05/05 19:28:01;;;;;;;3.8;7.7;;;;;;;-133;94.4;65230;;;;
2022/05/05 19:38:01;;;;;;;5.4;9;;;;;;;-133;94.8;65230;;;;
2022/05/05 19:48:01;;;;;;;5.4;9;;;;;;;-133;96.2;65230;;;;
2022/05/05 20:10:01;;;;;;;5.7;9.9;;;;;;;-133;96;65230;;;;
2022/05/05 20:21:01;;;;;;;5.7;9.9;;;;;;;-133;95.6;65230;;;;
2022/05/05 20:31:01;;;;;;;7.6;10.5;;;;;;;-133;97.6;65230;;;;
2022/05/05 20:42:02;;;;;;;7.6;10.5;;;;;;;-133;97.5;65230;;;;
2022/05/05 20:52:01;;;;;;;7.6;10.5;;;;;;;-133;99.1;65230;;;;
2022/05/05 21:02:02;;;;;;;6.1;11.1;;;;;;;-133;98.6;65230;;;;
2022/05/05 21:13:01;;;;;;;6.1;11.1;;;;;;;-133;99.6;65230;;;;
2022/05/05 21:34:01;;;;;;;7.6;12.8;;;;;;;-133;99.8;65230;;;;
2022/05/05 21:44:01;;;;;;;7.6;12.8;;;;;;;-133;100;65230;;;;
2022/05/05 21:54:01;;;;;;;7.6;12.8;;;;;;;-133;100;65240;;;;
2022/05/05 22:05:01;;;;;;;8.5;12;;;;;;;-133;100;65240;;;;
2022/05/05 22:15:01;;;;;;;8.5;12;;;;;;;-133;100;65240;;;;
2022/05/05 22:26:03;;;;;;;8.5;12;;;;;;;-133;100;65250;;;;
2022/05/05 22:37:01;;;;;;;9.3;11.8;;;;;;;-133;100;65240;;;;
2022/05/05 22:47:01;;;;;;;9.3;11.8;;;;;;;-133;100;65250;;;;
2022/05/05 22:57:01;;;;;;;9.3;11.8;;;;;;;-133;100;65240;;;;
2022/05/05 23:08:01;;;;;;;9.2;11.7;;;;;;;-133;100;65240;;;;
2022/05/05 23:18:01;;;;;;;9.2;11.7;;;;;;;-133;100;65250;;;;
2022/05/05 23:28:02;;;;;;;9.2;11.7;;;;;;;-133;100;65240;;;;
2022/05/05 23:39:01;;;;;;;9.4;11.4;;;;;;;-133;100;65250;;;;
2022/05/05 23:50:01;;;;;;;9.4;11.4;;;;;;;-133;100;65250;;;;
